Time;durP1;ratioP1;P1;durP2;ratioP2;P2;SDS_P1;SDS_P2;PMS_P1;PMS_P2;Temp;Humidity;BMP_temperature;BMP_pressure;BME280_temperature;BME280_humidity;BME280_pressure;Samples;Min_cycle;Max_cycle;Signal;HPM_P1;HPM_P2
2022/02/10 00:06:43;;;;;;;;;45.00;37.25;;;;;11.82;59.01;101845.38;5102089;27;45330;-65
2022/02/10 00:20:28;;;;;;;;;43.00;36.25;;;;;11.84;59.39;101831.06;5087885;27;46664;-65
2022/02/10 00:23:17;;;;;;;;;33.75;33.00;;;;;11.76;59.49;101819.66;5100660;27;46257;-65
2022/02/10 00:36:27;;;;;;;;;31.75;28.75;;;;;11.85;59.71;101840.84;5097139;27;45718;-65
2022/02/10 00:39:26;;;;;;;;;31.00;26.50;;;;;11.84;59.52;101835.53;5091972;27;45314;-65
2022/02/10 00:41:40;;;;;;;;;29.75;29.75;;;;;11.79;59.64;101830.25;5097579;27;45235;-65
2022/02/10 00:44:05;;;;;;;;;30.25;25.00;;;;;11.87;59.49;101841.69;5095925;27;45435;-66
2022/02/10 00:46:31;;;;;;;;;40.00;33.00;;;;;11.88;59.81;101845.28;5101655;27;45324;-66
2022/02/10 00:48:56;;;;;;;;;35.00;26.00;;;;;11.86;59.44;101839.03;5101326;27;45280;-65
2022/02/10 00:51:21;;;;;;;;;32.00;30.50;;;;;11.85;59.46;101839.97;5100673;27;45197;-65
2022/02/10 00:53:47;;;;;;;;;34.00;28.50;;;;;11.77;59.32;101823.19;5099534;27;45420;-65
2022/02/10 00:56:14;;;;;;;;;32.50;27.50;;;;;11.85;59.46;101842.66;5101421;27;45397;-66
2022/02/10 00:58:42;;;;;;;;;33.25;24.00;;;;;11.84;59.52;101840.88;5101359;27;45328;-66
2022/02/10 01:07:13;;;;;;;;;25.75;25.50;;;;;11.85;59.33;101834.63;5101139;27;45364;-65
2022/02/10 01:12:44;;;;;;;;;33.50;29.75;;;;;11.85;59.26;101840.84;5100609;27;45219;-65
2022/02/10 01:31:34;;;;;;;;;31.75;30.50;;;;;11.87;59.40;101860.41;5100539;27;45353;-66
2022/02/10 01:34:00;;;;;;;;;36.75;32.50;;;;;11.85;59.37;101848.88;5100399;27;45369;-66
2022/02/10 01:36:25;;;;;;;;;22.00;18.00;;;;;11.86;59.53;101864.03;5082187;27;47257;-66
2022/02/10 01:38:50;;;;;;;;;33.75;32.25;;;;;11.86;59.67;101861.34;5092009;27;45321;-65
2022/02/10 01:58:03;;;;;;;;;35.25;33.00;;;;;11.79;59.85;101870.38;5098660;27;45225;-65
2022/02/10 02:05:47;;;;;;;;;33.75;32.50;;;;;11.76;60.17;101858.88;5100171;27;45366;-66
2022/02/10 02:08:15;;;;;;;;;40.00;34.50;;;;;11.74;60.01;101861.56;5100060;27;46348;-65
2022/02/10 02:10:40;;;;;;;;;38.25;35.00;;;;;11.74;59.94;101860.69;5099939;27;45330;-66
2022/02/10 02:13:06;;;;;;;;;32.00;28.75;;;;;11.66;60.26;101848.38;5097968;27;45336;-66
2022/02/10 02:15:31;;;;;;;;;43.50;33.25;;;;;11.72;60.10;101858.06;5098058;27;45304;-65
2022/02/10 02:17:56;;;;;;;;;42.25;32.50;;;;;11.74;60.17;101864.25;5097538;27;47564;-66
2022/02/10 02:20:22;;;;;;;;;36.75;32.00;;;;;11.72;60.52;101867.88;5098893;27;45427;-66
2022/02/10 02:22:47;;;;;;;;;25.50;23.50;;;;;11.70;59.68;101873.25;5101099;27;45293;-65
2022/02/10 02:25:13;;;;;;;;;30.75;29.75;;;;;11.71;60.20;101872.34;5103764;27;45562;-66
2022/02/10 02:27:55;;;;;;;;;25.50;22.75;;;;;11.68;60.36;101867.94;5101884;27;46968;-65
2022/02/10 02:30:46;;;;;;;;;33.25;29.25;;;;;11.67;60.28;101870.63;5101585;27;45991;-65
2022/02/10 02:38:40;;;;;;;;;32.25;30.00;;;;;11.64;60.07;101868.00;5089393;27;46128;-65
2022/02/10 03:05:43;;;;;;;;;25.25;22.00;;;;;11.52;60.41;101860.22;5103239;27;45230;-65
2022/02/10 03:08:18;;;;;;;;;25.25;22.00;;;;;11.49;60.49;101854.03;5103004;27;45279;-66
2022/02/10 03:13:17;;;;;;;;;28.50;26.00;;;;;11.45;60.55;101859.47;5103049;27;45156;-65
2022/02/10 04:12:32;;;;;;;;;24.50;22.25;;;;;11.29;60.29;101883.78;5099075;27;45246;-66
2022/02/10 04:15:03;;;;;;;;;28.50;24.50;;;;;11.27;60.26;101885.59;5101829;27;45513;-66
2022/02/10 04:23:04;;;;;;;;;24.75;24.00;;;;;11.25;60.03;101884.75;5101686;27;45659;-66
2022/02/10 04:25:54;;;;;;;;;31.25;27.00;;;;;11.25;60.14;101883.88;5100736;27;45359;-65
2022/02/10 04:28:42;;;;;;;;;30.50;25.00;;;;;11.20;60.55;101883.06;5100772;27;45677;-66
2022/02/10 04:31:36;;;;;;;;;28.50;22.50;;;;;11.23;60.07;101896.38;5101260;27;45457;-66
2022/02/10 04:40:24;;;;;;;;;30.25;27.50;;;;;11.24;60.51;101898.13;5097499;27;45315;-66
2022/02/10 04:53:37;;;;;;;;;27.50;25.75;;;;;11.13;60.24;101901.88;5089239;27;45239;-65
2022/02/10 05:15:16;;;;;;;;;29.00;27.50;;;;;11.11;60.34;101910.84;5108667;27;45496;-66
2022/02/10 05:17:43;;;;;;;;;28.25;22.00;;;;;11.07;60.28;101909.09;5089622;27;45467;-65
2022/02/10 05:20:58;;;;;;;;;20.75;19.00;;;;;11.09;60.21;101907.28;5100509;27;46072;-66
2022/02/10 05:23:41;;;;;;;;;23.00;20.25;;;;;11.08;60.19;101917.09;5100333;27;45555;-65
2022/02/10 05:31:53;;;;;;;;;29.50;24.75;;;;;10.70;59.99;101851.78;5100302;27;45797;-65
2022/02/10 05:34:11;;;;;;;;;36.25;28.50;;;;;11.03;59.98;101910.94;5098867;27;45352;-65
2022/02/10 05:36:39;;;;;;;;;23.00;20.75;;;;;11.02;59.83;101910.97;5094508;27;45458;-65
2022/02/10 05:39:21;;;;;;;;;23.00;21.75;;;;;11.01;59.99;101895.81;5093882;27;45325;-65
2022/02/10 05:42:24;;;;;;;;;22.00;20.00;;;;;11.02;59.92;101909.16;5096783;27;47001;-65
2022/02/10 05:45:12;;;;;;;;;29.00;25.75;;;;;11.04;59.95;101917.16;5087340;27;45395;-65
2022/02/10 06:38:30;;;;;;;;;24.50;21.25;;;;;11.05;59.72;101937.63;5100474;27;46200;-65
2022/02/10 06:49:59;;;;;;;;;25.25;20.50;;;;;11.04;59.44;101955.47;5095863;27;45370;-65
2022/02/10 06:52:34;;;;;;;;;30.25;26.25;;;;;11.06;59.78;101952.75;5098309;27;45588;-65
2022/02/10 06:55:35;;;;;;;;;26.50;23.00;;;;;11.03;59.83;101955.50;5100315;27;45436;-65
2022/02/10 07:51:31;;;;;;;;;30.75;28.00;;;;;11.00;59.94;101980.44;5097555;27;46111;-67
2022/02/10 09:06:07;;;;;;;;;30.75;29.25;;;;;11.03;60.54;102036.53;5100530;27;45968;-65
2022/02/10 09:18:52;;;;;;;;;31.00;30.00;;;;;11.04;60.07;102038.31;5093910;27;45359;-66
2022/02/10 09:59:28;;;;;;;;;31.00;30.25;;;;;11.21;60.34;102063.88;5096882;27;45875;-65
2022/02/10 10:04:37;;;;;;;;;28.25;23.75;;;;;11.25;59.70;102069.16;5099532;27;45400;-66
2022/02/10 10:07:19;;;;;;;;;30.25;25.25;;;;;11.32;60.02;102072.63;5098776;27;45349;-65
2022/02/10 10:09:57;;;;;;;;;28.75;26.75;;;;;11.31;59.66;102068.22;5086202;27;46195;-65
2022/02/10 10:15:28;;;;;;;;;28.75;25.50;;;;;11.37;59.81;102077.94;5099854;27;45526;-65
2022/02/10 10:18:22;;;;;;;;;28.75;26.75;;;;;11.37;59.90;102076.13;5095071;27;45346;-66
2022/02/10 10:56:59;;;;;;;;;24.50;24.25;;;;;11.39;59.68;102089.47;5104563;27;45720;-66
2022/02/10 11:38:15;;;;;;;;;25.00;20.75;;;;;11.72;59.78;102050.63;5086949;27;45407;-66
2022/02/10 13:49:42;;;;;;;;;11.00;10.50;;;;;12.45;61.14;101935.13;5096113;27;45770;-67
2022/02/10 14:26:06;;;;;;;;;8.50;8.00;;;;;12.56;60.26;101903.66;5076550;27;45458;-66
2022/02/10 14:28:32;;;;;;;;;13.25;10.25;;;;;12.63;60.16;101903.50;5095240;27;45457;-66
2022/02/10 14:30:58;;;;;;;;;9.75;9.75;;;;;12.62;60.07;101907.97;5102006;27;45373;-66
2022/02/10 14:33:30;;;;;;;;;13.50;11.25;;;;;12.63;60.06;101901.72;5100466;27;45314;-66
2022/02/10 14:36:18;;;;;;;;;11.00;11.00;;;;;12.63;60.04;101903.50;5102486;27;46407;-66
2022/02/10 16:11:47;;;;;;;;;7.00;7.00;;;;;12.89;57.51;101860.03;5098506;27;45976;-66
2022/02/10 16:19:25;;;;;;;;;10.00;8.75;;;;;12.93;57.81;101859.91;5093740;27;45690;-66
2022/02/10 16:22:10;;;;;;;;;9.25;9.25;;;;;12.90;57.68;101859.13;5092866;27;46483;-66
2022/02/10 16:24:48;;;;;;;;;10.00;9.50;;;;;12.90;57.77;101843.91;5086719;27;46349;-66
2022/02/10 16:27:18;;;;;;;;;16.00;14.00;;;;;12.95;57.61;101850.03;5100953;27;45589;-66
2022/02/10 16:29:45;;;;;;;;;12.00;11.25;;;;;12.96;57.55;101845.56;5101511;27;45431;-66
2022/02/10 16:32:10;;;;;;;;;13.00;10.50;;;;;12.96;57.76;101845.56;5101754;27;45352;-66
2022/02/10 16:34:43;;;;;;;;;15.75;11.50;;;;;12.96;57.87;101851.81;5101329;27;45355;-66
2022/02/10 16:37:10;;;;;;;;;7.25;7.00;;;;;12.96;57.55;101845.56;5099660;27;45336;-66
2022/02/10 16:39:39;;;;;;;;;10.25;10.25;;;;;12.97;57.44;101842.84;5093323;27;45512;-66
2022/02/10 16:42:07;;;;;;;;;12.25;10.00;;;;;12.98;57.25;101841.94;5096252;27;45490;-66
2022/02/10 16:44:33;;;;;;;;;10.75;8.75;;;;;12.97;57.26;101840.16;5100644;27;46022;-66
2022/02/10 16:47:00;;;;;;;;;13.25;12.25;;;;;12.98;57.43;101846.41;5095157;27;45402;-66
2022/02/10 16:49:27;;;;;;;;;14.25;13.00;;;;;12.96;57.41;101848.22;5100170;27;45457;-66
2022/02/10 16:51:53;;;;;;;;;14.50;14.00;;;;;12.98;57.24;101862.50;5092166;27;45515;-66
2022/02/10 16:54:30;;;;;;;;;13.50;12.00;;;;;12.93;57.35;101850.97;5101326;27;45984;-66
2022/02/10 16:59:48;;;;;;;;;11.00;11.00;;;;;13.01;57.25;101859.72;5101397;27;45391;-67
2022/02/10 17:05:00;;;;;;;;;12.25;7.50;;;;;12.99;57.18;101853.53;5101118;27;46256;-66
2022/02/10 17:21:01;;;;;;;;;11.75;11.75;;;;;13.06;57.28;101876.56;5097131;27;45432;-67
2022/02/10 17:28:39;;;;;;;;;11.25;11.00;;;;;12.99;57.56;101869.59;5099567;27;45648;-66
2022/02/10 17:36:05;;;;;;;;;14.50;11.50;;;;;13.01;57.94;101902.59;5113744;27;45492;-65
2022/02/10 17:44:34;;;;;;;;;11.00;9.00;;;;;12.94;59.18;101934.03;5086211;27;45474;-66
2022/02/10 17:52:26;;;;;;;;;5.00;5.00;;;;;12.80;59.52;101952.25;5096570;27;45460;-66
2022/02/10 17:54:52;;;;;;;;;23.75;23.75;;;;;12.78;59.85;101967.47;5098462;27;45492;-66
2022/02/10 17:57:18;;;;;;;;;40.25;36.00;;;;;12.68;60.11;101972.16;5095712;27;46613;-66
2022/02/10 17:59:44;;;;;;;;;5.00;5.00;;;;;12.60;60.16;101979.47;5098900;27;45440;-66
2022/02/10 18:02:11;;;;;;;;;1.75;1.00;;;;;12.57;60.00;101987.56;5095967;27;45634;-66
2022/02/10 18:04:36;;;;;;;;;5.00;2.50;;;;;12.47;60.23;101996.69;5097218;27;45963;-66
2022/02/10 18:07:03;;;;;;;;;1.50;1.50;;;;;12.42;60.25;101992.31;5095803;27;45462;-66
2022/02/10 18:17:43;;;;;;;;;4.00;4.00;;;;;12.17;60.46;101996.38;5096563;27;46089;-66
2022/02/10 18:19:57;;;;;;;;;1.75;1.75;;;;;12.12;60.48;102012.53;5094523;27;45725;-67
2022/02/10 18:27:57;;;;;;;;;3.00;3.00;;;;;11.97;60.32;102028.88;5084693;27;45530;-66
2022/02/10 18:30:27;;;;;;;;;3.75;3.75;;;;;11.92;60.44;102020.03;5096989;27;45482;-66
2022/02/10 19:10:08;;;;;;;;;4.75;3.00;;;;;11.24;61.06;102080.78;5099255;27;45554;-66
2022/02/10 19:12:43;;;;;;;;;4.00;3.50;;;;;11.22;60.52;102098.59;5097662;27;45871;-65
2022/02/10 19:17:43;;;;;;;;;2.00;2.00;;;;;11.10;60.26;102105.00;5098255;27;45510;-65
2022/02/10 19:20:09;;;;;;;;;2.00;2.00;;;;;11.03;60.19;102100.66;5099107;27;45843;-65
2022/02/10 19:22:35;;;;;;;;;2.00;2.00;;;;;11.01;60.54;102114.91;5098912;27;45443;-65
2022/02/10 19:25:01;;;;;;;;;0.50;0.50;;;;;10.97;60.17;102113.19;5105496;27;45434;-66
2022/02/10 19:27:26;;;;;;;;;1.00;1.00;;;;;10.94;60.22;102108.75;5102342;27;45401;-65
2022/02/10 19:29:57;;;;;;;;;2.00;2.00;;;;;10.84;60.49;102099.09;5097536;27;46007;-65
2022/02/10 19:32:24;;;;;;;;;1.00;1.00;;;;;10.90;60.60;102120.41;5090681;27;45418;-65
2022/02/10 19:34:53;;;;;;;;;2.00;2.00;;;;;10.86;60.21;102116.88;5099070;27;45638;-66
2022/02/10 19:37:18;;;;;;;;;4.00;1.00;;;;;10.81;60.31;102124.06;5098559;27;45804;-69
2022/02/10 19:39:50;;;;;;;;;1.75;1.50;;;;;10.81;60.83;102129.41;5098542;27;46240;-66
2022/02/10 19:42:15;;;;;;;;;2.00;2.00;;;;;10.80;60.07;102130.31;5096055;27;45962;-65
2022/02/10 19:44:41;;;;;;;;;1.75;1.75;;;;;10.73;60.67;102115.25;5097447;27;45428;-67
2022/02/10 19:47:06;;;;;;;;;2.00;1.75;;;;;10.72;60.31;102125.03;5100455;27;45491;-67
2022/02/10 19:49:32;;;;;;;;;2.25;2.25;;;;;10.72;60.81;102134.84;5098208;27;45931;-67
2022/02/10 19:51:57;;;;;;;;;3.25;3.25;;;;;10.70;61.10;102134.84;5105280;27;45737;-67
2022/02/10 19:54:29;;;;;;;;;2.50;2.50;;;;;10.71;61.07;102136.63;5096404;27;45498;-66
2022/02/10 19:56:56;;;;;;;;;3.00;2.00;;;;;10.69;61.11;102143.78;5101403;27;45447;-66
2022/02/10 19:59:28;;;;;;;;;5.00;3.50;;;;;10.66;60.59;102143.81;5097890;27;46347;-66
2022/02/10 20:01:54;;;;;;;;;3.25;3.25;;;;;10.65;61.24;102141.16;5096498;27;45418;-67
2022/02/10 20:04:21;;;;;;;;;1.00;1.00;;;;;10.65;60.80;102154.50;5098538;27;45739;-71
2022/02/10 20:06:47;;;;;;;;;2.00;2.00;;;;;10.54;61.24;102136.81;5089632;27;46006;-70
2022/02/10 20:09:15;;;;;;;;;3.00;2.00;;;;;10.59;61.13;102149.22;5110322;27;45783;-66
2022/02/10 20:11:41;;;;;;;;;2.00;2.00;;;;;10.57;61.19;102152.81;5099117;27;45615;-66
2022/02/10 20:14:06;;;;;;;;;2.25;2.25;;;;;10.54;61.73;102151.94;5097329;27;45448;-67
2022/02/10 20:16:32;;;;;;;;;2.50;2.50;;;;;10.53;61.43;102160.84;5097222;27;45976;-67
2022/02/10 20:18:57;;;;;;;;;1.00;1.00;;;;;10.48;61.11;102157.34;5096870;27;46287;-67
2022/02/10 20:21:23;;;;;;;;;2.25;2.25;;;;;10.48;61.58;102162.69;5097941;27;45763;-68
2022/02/10 20:23:49;;;;;;;;;5.75;3.75;;;;;10.48;61.17;102168.03;5097615;27;45689;-66
2022/02/10 20:26:15;;;;;;;;;5.25;3.00;;;;;10.47;61.27;102169.78;5096941;27;45528;-67
2022/02/10 20:28:42;;;;;;;;;4.75;4.75;;;;;10.42;61.14;102163.59;5097638;27;45990;-67
2022/02/10 20:31:09;;;;;;;;;12.00;10.00;;;;;10.44;61.39;102176.94;5097844;27;45863;-67
2022/02/10 20:33:35;;;;;;;;;11.25;11.25;;;;;10.40;61.48;102170.75;5097594;27;45781;-68
2022/02/10 20:36:03;;;;;;;;;5.50;4.50;;;;;10.41;61.60;102176.97;5094510;27;45629;-67
2022/02/10 20:38:31;;;;;;;;;7.75;7.75;;;;;10.39;61.82;102174.34;5090682;27;45750;-67
2022/02/10 20:41:03;;;;;;;;;4.50;4.50;;;;;10.36;61.63;102174.38;5097059;27;45546;-66
2022/02/10 20:43:28;;;;;;;;;6.00;6.00;;;;;10.38;61.12;102178.78;5093809;27;45685;-65
2022/02/10 20:46:01;;;;;;;;;7.25;5.50;;;;;10.36;61.29;102164.56;5097534;27;45677;-66
2022/02/10 20:48:28;;;;;;;;;6.00;5.25;;;;;10.36;61.54;102159.22;5097533;27;45410;-65
2022/02/10 20:50:56;;;;;;;;;3.50;3.25;;;;;10.33;61.37;102166.38;5097492;27;45745;-67
2022/02/10 20:53:24;;;;;;;;;5.50;5.50;;;;;10.36;61.45;102174.38;5096478;27;45379;-65
2022/02/10 20:55:53;;;;;;;;;5.75;5.75;;;;;10.36;61.75;102175.25;5097119;27;45445;-64
2022/02/10 20:58:20;;;;;;;;;9.75;7.75;;;;;10.33;61.39;102183.28;5097280;27;45467;-64
2022/02/10 21:00:46;;;;;;;;;3.00;3.00;;;;;10.31;61.60;102203.72;5097579;27;45838;-66
2022/02/10 21:03:14;;;;;;;;;5.50;4.50;;;;;10.29;61.34;102210.88;5097242;27;45808;-66
2022/02/10 21:05:42;;;;;;;;;8.75;6.25;;;;;10.28;61.61;102209.06;5096928;27;45654;-67
2022/02/10 21:10:35;;;;;;;;;5.75;5.75;;;;;10.24;61.38;102210.00;5095928;27;45405;-65
2022/02/10 21:13:00;;;;;;;;;10.50;7.75;;;;;10.24;61.15;102215.34;5097424;27;45528;-65
2022/02/10 21:15:30;;;;;;;;;5.00;4.50;;;;;10.22;61.72;102209.13;5096668;27;45496;-65
2022/02/10 21:18:01;;;;;;;;;5.50;5.00;;;;;10.22;61.55;102208.25;5096972;27;46597;-64
2022/02/10 21:20:30;;;;;;;;;5.25;5.25;;;;;10.16;61.38;102206.50;5097390;27;45853;-66
2022/02/10 21:23:05;;;;;;;;;7.50;4.75;;;;;10.15;61.82;102215.41;5097442;27;45491;-66
2022/02/10 21:25:35;;;;;;;;;5.00;3.50;;;;;10.18;62.08;102223.41;5095532;27;45733;-66
2022/02/10 21:28:04;;;;;;;;;4.00;3.00;;;;;10.19;61.46;102217.16;5094388;27;46195;-65
2022/02/10 21:30:30;;;;;;;;;3.50;3.50;;;;;10.18;61.45;102220.72;5092302;27;45432;-66
2022/02/10 21:32:57;;;;;;;;;3.25;3.25;;;;;10.18;61.45;102218.06;5092368;27;45501;-65
2022/02/10 21:35:37;;;;;;;;;5.00;3.00;;;;;10.15;61.32;102216.28;5094949;27;45559;-65
2022/02/10 21:38:16;;;;;;;;;2.00;2.00;;;;;10.14;61.72;102218.94;5095574;27;45545;-67
2022/02/10 21:57:11;;;;;;;;;5.50;4.00;;;;;10.09;61.75;102218.09;5096435;27;45833;-66
2022/02/10 22:11:27;;;;;;;;;3.75;3.75;;;;;10.09;61.39;102240.34;5079185;27;45448;-65
2022/02/10 22:19:01;;;;;;;;;7.00;4.25;;;;;10.08;61.59;102235.91;5076053;27;45370;-65
2022/02/10 22:21:45;;;;;;;;;4.00;4.00;;;;;10.12;61.22;102250.09;5071101;28;45943;-65
2022/02/10 22:24:10;;;;;;;;;4.75;3.00;;;;;10.08;61.12;102227.03;5075757;27;45764;-65
2022/02/10 22:26:38;;;;;;;;;4.25;2.25;;;;;10.13;61.59;102244.75;5075953;27;45477;-65
2022/02/10 22:36:26;;;;;;;;;4.00;4.00;;;;;10.12;61.34;102264.34;5078128;27;45614;-65
2022/02/10 22:38:57;;;;;;;;;3.00;3.00;;;;;10.11;61.14;102259.91;5075959;27;45543;-65
2022/02/10 22:41:22;;;;;;;;;2.00;2.00;;;;;10.14;61.24;102261.66;5078946;27;45921;-65
2022/02/10 22:43:50;;;;;;;;;3.50;3.00;;;;;10.15;61.42;102266.09;5074826;27;45427;-65
2022/02/10 22:46:17;;;;;;;;;4.50;3.00;;;;;10.14;61.23;102267.91;5076755;28;45541;-65
2022/02/10 22:48:44;;;;;;;;;3.00;3.00;;;;;10.13;60.98;102274.13;5083081;28;45515;-65
2022/02/10 22:51:14;;;;;;;;;4.50;3.50;;;;;10.14;60.89;102275.00;5090841;27;45258;-65
2022/02/10 22:53:40;;;;;;;;;4.50;4.00;;;;;10.15;61.31;102266.09;5083155;27;45491;-65
2022/02/10 22:56:10;;;;;;;;;5.75;5.00;;;;;10.16;60.79;102270.56;5082550;27;45341;-65
2022/02/10 22:58:38;;;;;;;;;4.50;4.00;;;;;10.16;60.87;102267.88;5088540;27;45567;-65
2022/02/10 23:01:05;;;;;;;;;5.75;5.75;;;;;10.15;60.90;102266.97;5103083;27;46352;-65
2022/02/10 23:03:32;;;;;;;;;3.50;3.50;;;;;10.12;60.82;102269.69;5102937;27;45655;-65
2022/02/10 23:05:58;;;;;;;;;7.00;5.00;;;;;10.15;61.40;102280.31;5103465;27;45544;-65
2022/02/10 23:08:23;;;;;;;;;5.00;5.00;;;;;10.10;61.09;102273.25;5101978;27;45535;-65
2022/02/10 23:10:50;;;;;;;;;5.00;5.00;;;;;10.12;60.86;102274.13;5101401;27;46364;-65
2022/02/10 23:13:17;;;;;;;;;4.25;3.75;;;;;10.12;60.46;102279.47;5103094;27;45254;-65
2022/02/10 23:15:44;;;;;;;;;7.25;5.25;;;;;10.13;60.88;102289.25;5103349;27;45418;-65
2022/02/10 23:18:16;;;;;;;;;4.00;4.00;;;;;10.11;60.62;102297.25;5102518;27;45452;-65
2022/02/10 23:20:42;;;;;;;;;6.50;6.50;;;;;10.09;60.55;102304.41;5102042;27;45554;-65
2022/02/10 23:23:10;;;;;;;;;6.25;5.00;;;;;10.07;60.95;102306.16;5102915;27;45586;-65
2022/02/10 23:25:37;;;;;;;;;9.25;7.00;;;;;10.08;61.12;102307.06;5101452;27;45326;-65
2022/02/10 23:28:08;;;;;;;;;7.50;6.50;;;;;10.04;61.21;102299.97;5102209;27;45294;-65
2022/02/10 23:30:34;;;;;;;;;8.50;8.50;;;;;9.99;60.47;102295.53;5102992;27;45460;-65
2022/02/10 23:33:08;;;;;;;;;7.75;7.00;;;;;9.99;60.57;102297.34;5113940;27;45684;-65
2022/02/10 23:37:59;;;;;;;;;10.00;8.75;;;;;10.05;60.39;102318.63;5102776;27;45329;-65
2022/02/10 23:40:29;;;;;;;;;5.25;5.25;;;;;10.02;60.78;102321.31;5102703;27;46762;-65
2022/02/10 23:42:55;;;;;;;;;9.25;7.75;;;;;10.00;60.53;102318.63;5100909;27;45275;-65
2022/02/10 23:45:25;;;;;;;;;9.50;9.00;;;;;9.98;60.55;102322.22;5102268;27;45351;-65
2022/02/10 23:47:51;;;;;;;;;12.50;10.25;;;;;9.93;61.00;102316.91;5102395;27;45479;-65
2022/02/10 23:50:23;;;;;;;;;13.50;11.25;;;;;9.94;60.36;102315.13;5100150;27;46357;-65
2022/02/10 23:52:52;;;;;;;;;13.25;12.00;;;;;9.99;60.89;102329.34;5102234;27;45346;-65
2022/02/10 23:55:22;;;;;;;;;13.50;11.25;;;;;9.97;60.40;102329.34;5102521;27;45431;-65
2022/02/10 23:58:08;;;;;;;;;8.50;6.25;;;;;9.90;60.67;102319.59;5102566;27;45275;-65
